createdAt,value
2018-11-02T00:00:18.565Z,1018.4
2018-11-02T00:05:17.762Z,1018.6
2018-11-02T00:10:17.801Z,1018.7
2018-11-02T00:15:17.800Z,1018.8
2018-11-02T00:20:17.732Z,1018.8
2018-11-02T00:25:17.753Z,1019
2018-11-02T00:30:17.772Z,1019.1
2018-11-02T00:35:17.782Z,1019.1
2018-11-02T00:40:17.776Z,1019.3
2018-11-02T00:45:28.672Z,1019.3
2018-11-02T00:50:28.434Z,1019.4
2018-11-02T00:55:28.378Z,1019.5
2018-11-02T01:00:28.382Z,1019.7
2018-11-02T01:05:28.375Z,1019.9
2018-11-02T01:10:28.393Z,1019.9
2018-11-02T01:15:28.495Z,1019.9
2018-11-02T01:20:28.372Z,1020
2018-11-02T01:25:28.387Z,1020.2
2018-11-02T01:30:40.181Z,1020.3
2018-11-02T01:35:39.850Z,1020.3
2018-11-02T01:40:39.870Z,1020.3
2018-11-02T01:45:39.898Z,1020.3
2018-11-02T01:50:39.882Z,1020.3
2018-11-02T01:55:40.198Z,1020.4
2018-11-02T02:00:39.916Z,1020.4
2018-11-02T02:05:39.898Z,1020.4
2018-11-02T02:10:40.694Z,1020.5
2018-11-02T02:15:51.983Z,1020.7
2018-11-02T02:20:51.728Z,1020.5
2018-11-02T02:25:51.693Z,1020.4
2018-11-02T02:30:51.741Z,1020.5
2018-11-02T02:35:51.725Z,1020.5
2018-11-02T02:40:51.850Z,1020.5
2018-11-02T02:45:51.717Z,1020.5
2018-11-02T02:50:51.922Z,1020.7
2018-11-02T02:55:51.938Z,1020.8
2018-11-02T03:01:04.588Z,1020.9
2018-11-02T03:06:04.477Z,1020.8
2018-11-02T03:11:05.312Z,1020.8
2018-11-02T03:16:05.305Z,1020.8
2018-11-02T03:21:04.514Z,1020.8
2018-11-02T03:26:05.281Z,1020.8
2018-11-02T03:31:04.558Z,1020.8
2018-11-02T03:36:04.936Z,1020.9
2018-11-02T03:41:04.372Z,1020.9
2018-11-02T03:46:16.731Z,1020.8
2018-11-02T03:51:16.480Z,1020.7
2018-11-02T03:56:16.527Z,1020.8
2018-11-02T04:01:16.464Z,1020.7
2018-11-02T04:06:16.621Z,1020.8
2018-11-02T04:11:16.543Z,1021
2018-11-02T04:16:16.497Z,1021.1
2018-11-02T04:21:21.181Z,1021.3
2018-11-02T04:26:20.177Z,1021.3
2018-11-02T04:31:33.372Z,1021.3
2018-11-02T04:36:32.470Z,1021.7
2018-11-02T04:41:33.130Z,1021.8
2018-11-02T04:46:32.553Z,1021.8
2018-11-02T04:51:32.694Z,1021.8
2018-11-02T04:56:32.353Z,1021.8
2018-11-02T05:01:32.482Z,1021.9
2018-11-02T05:06:32.785Z,1021.9
2018-11-02T05:11:36.106Z,1021.8
2018-11-02T05:16:45.376Z,1022
2018-11-02T05:21:45.215Z,1021.8
2018-11-02T05:26:45.113Z,1022
2018-11-02T05:31:45.125Z,1022
2018-11-02T05:36:44.977Z,1022.1
2018-11-02T05:41:46.247Z,1022.3
2018-11-02T05:46:46.176Z,1022.3
2018-11-02T05:51:48.308Z,1022.4
2018-11-02T05:56:48.174Z,1022.3
2018-11-02T06:02:01.023Z,1022.3
2018-11-02T06:07:00.744Z,1022.2
2018-11-02T06:12:00.770Z,1022.1
2018-11-02T06:17:01.442Z,1022.1
2018-11-02T06:22:00.738Z,1022.2
2018-11-02T06:27:00.860Z,1022.4
2018-11-02T06:32:00.907Z,1022.5
2018-11-02T06:37:01.435Z,1022.5
2018-11-02T06:42:01.159Z,1022.4
2018-11-02T06:47:13.718Z,1022.2
2018-11-02T06:52:13.451Z,1022.1
2018-11-02T06:57:13.453Z,1022.2
2018-11-02T07:02:14.438Z,1022.3
2018-11-02T07:07:14.077Z,1022.2
2018-11-02T07:12:14.100Z,1022.2
2018-11-02T07:17:13.553Z,1022.5
2018-11-02T07:22:15.691Z,1022.5
2018-11-02T07:27:15.721Z,1022.7
2018-11-02T07:32:28.774Z,1022.7
2018-11-02T07:37:28.497Z,1022.3
2018-11-02T07:42:28.528Z,1021.9
2018-11-02T07:47:28.769Z,1021.8
2018-11-02T07:52:28.554Z,1022
2018-11-02T07:57:28.517Z,1021.8
2018-11-02T08:02:28.528Z,1021.9
2018-11-02T08:07:28.516Z,1022.2
2018-11-02T08:12:28.541Z,1022.2
2018-11-02T08:17:39.893Z,1022.1
2018-11-02T08:22:39.354Z,1022.1
2018-11-02T10:25:54.759Z,1020.5
2018-11-02T10:30:54.763Z,1020.6
2018-11-02T10:35:54.975Z,1020.4
2018-11-02T10:40:54.754Z,1020.8
2018-11-02T10:46:04.436Z,1020.8
2018-11-02T10:51:04.028Z,1020.7
2018-11-02T10:56:03.735Z,1020.8
2018-11-02T11:01:04.566Z,1020.7
2018-11-02T11:06:03.744Z,1020.7
2018-11-02T11:11:03.745Z,1020.6
2018-11-02T11:16:03.756Z,1020.7
2018-11-02T11:21:05.365Z,1020.7
2018-11-02T11:26:04.992Z,1020.7
2018-11-02T11:31:15.107Z,1020.8
2018-11-02T11:36:14.859Z,1020.9
2018-11-02T11:41:14.826Z,1020.9
2018-11-02T11:46:14.830Z,1021
2018-11-02T11:51:14.993Z,1020.9
2018-11-02T11:56:15.051Z,1021
2018-11-02T12:01:14.961Z,1020.9
2018-11-02T12:06:16.781Z,1021
2018-11-02T12:11:16.478Z,1020.9
2018-11-02T12:16:28.539Z,1020.8
2018-11-02T12:21:28.263Z,1020.5
2018-11-02T12:26:28.281Z,1020.7
2018-11-02T12:31:28.259Z,1020.6
2018-11-02T12:36:28.309Z,1020.7
2018-11-02T12:41:28.265Z,1020.7
2018-11-02T12:46:28.319Z,1020.6
2018-11-02T12:51:28.770Z,1020.6
2018-11-02T12:56:28.713Z,1020.7
2018-11-02T13:01:40.613Z,1020.6
2018-11-02T13:06:40.323Z,1020.6
2018-11-02T13:11:40.317Z,1020.6
2018-11-02T13:16:40.317Z,1020.5
2018-11-02T13:21:41.050Z,1020.6
2018-11-02T13:26:40.920Z,1020.7
2018-11-02T13:31:40.854Z,1020.9
2018-11-02T13:36:41.870Z,1020.9
2018-11-02T13:41:40.784Z,1020.9
2018-11-02T13:46:52.808Z,1020.9
2018-11-02T13:51:52.523Z,1020.8
2018-11-02T13:56:52.525Z,1020.9
2018-11-02T14:01:53.077Z,1020.9
2018-11-02T14:06:52.548Z,1020.8
2018-11-02T14:11:56.981Z,1020.8
2018-11-02T14:16:52.562Z,1020.8
2018-11-02T14:21:54.872Z,1020.9
2018-11-02T14:26:54.142Z,1020.9
2018-11-02T14:32:07.855Z,1021.2
2018-11-02T14:37:07.399Z,1021
2018-11-02T14:42:07.541Z,1021
2018-11-02T14:47:07.436Z,1021.1
2018-11-02T14:52:07.462Z,1021.1
2018-11-02T14:57:07.473Z,1021.1
2018-11-02T15:02:07.454Z,1021.1
2018-11-02T15:07:07.493Z,1021.1
2018-11-02T15:12:07.435Z,1021.2
2018-11-02T15:17:19.598Z,1021.2
2018-11-02T15:22:19.246Z,1021.1
2018-11-02T15:27:19.274Z,1021.2
2018-11-02T15:32:19.613Z,1021.3
2018-11-02T15:37:19.376Z,1021.4
2018-11-02T15:42:19.397Z,1021.5
2018-11-02T15:47:19.326Z,1021.6
2018-11-02T15:52:19.431Z,1021.7
2018-11-02T15:57:19.436Z,1021.7
2018-11-02T16:02:32.337Z,1021.8
2018-11-02T16:07:32.045Z,1021.8
2018-11-02T16:12:32.054Z,1021.9
2018-11-02T16:17:32.068Z,1022
2018-11-02T16:22:32.314Z,1022.2
2018-11-02T16:27:32.296Z,1022.2
2018-11-02T16:32:32.333Z,1022.2
2018-11-02T16:37:35.230Z,1022.3
2018-11-02T16:42:34.963Z,1022.3
2018-11-02T16:47:47.291Z,1022.5
2018-11-02T16:52:46.909Z,1022.5
2018-11-02T16:57:47.712Z,1022.6
2018-11-02T17:02:47.163Z,1022.7
2018-11-02T17:07:46.879Z,1022.7
2018-11-02T17:12:46.901Z,1022.7
2018-11-02T17:17:46.917Z,1022.8
2018-11-02T17:22:46.962Z,1022.8
2018-11-02T17:27:46.909Z,1022.8
2018-11-02T17:32:59.527Z,1023.1
2018-11-02T17:37:59.188Z,1023.1
2018-11-02T17:42:59.253Z,1023.2
2018-11-02T17:47:59.270Z,1023.3
2018-11-02T17:52:59.266Z,1023.3
2018-11-02T17:57:59.241Z,1023.3
2018-11-02T18:02:59.366Z,1023.4
2018-11-02T18:07:59.281Z,1023.4
2018-11-02T18:12:59.367Z,1023.7
2018-11-02T18:18:10.769Z,1023.8
2018-11-02T18:23:10.405Z,1023.8
2018-11-02T18:28:10.474Z,1023.9
2018-11-02T18:33:10.388Z,1023.8
2018-11-02T18:38:10.703Z,1023.9
2018-11-02T18:43:10.661Z,1023.9
2018-11-02T18:48:10.837Z,1023.9
2018-11-02T18:53:10.401Z,1023.9
2018-11-02T18:58:11.093Z,1024
2018-11-02T19:03:22.341Z,1023.9
2018-11-02T19:08:22.373Z,1023.9
2018-11-02T19:13:23.034Z,1024.1
2018-11-02T19:18:22.917Z,1024.1
2018-11-02T19:23:25.477Z,1024.2
2018-11-02T19:28:22.989Z,1024.2
2018-11-02T19:33:22.784Z,1024.3
2018-11-02T19:38:22.810Z,1024.4
2018-11-02T19:43:22.449Z,1024.4
2018-11-02T19:48:30.734Z,1024.5
2018-11-02T19:53:30.768Z,1024.6
2018-11-02T19:58:30.693Z,1024.8
2018-11-02T20:03:30.404Z,1024.7
2018-11-02T20:08:30.542Z,1024.8
2018-11-02T20:13:30.386Z,1024.9
2018-11-02T20:18:30.395Z,1024.9
2018-11-02T20:23:31.349Z,1024.8
2018-11-02T20:28:31.316Z,1024.7
2018-11-02T20:33:45.267Z,1024.8
2018-11-02T20:38:45.570Z,1024.9
2018-11-02T20:43:46.016Z,1024.9
2018-11-02T20:48:45.519Z,1024.8
2018-11-02T20:53:45.031Z,1024.9
2018-11-02T20:58:45.940Z,1025
2018-11-02T21:03:45.492Z,1025
2018-11-02T21:08:46.518Z,1025.1
2018-11-02T21:13:45.409Z,1025
2018-11-02T21:18:58.128Z,1025.1
2018-11-02T21:23:58.160Z,1025.1
2018-11-02T21:28:58.453Z,1025
2018-11-02T21:33:58.633Z,1025.1
2018-11-02T21:38:57.867Z,1025.1
2018-11-02T21:43:58.141Z,1025.1
2018-11-02T21:48:57.859Z,1025.1
2018-11-02T21:53:58.371Z,1025.1
2018-11-02T21:58:58.252Z,1025.1
2018-11-02T22:04:10.518Z,1025.1
2018-11-02T22:09:10.173Z,1025.1
2018-11-02T22:14:10.327Z,1025.1
2018-11-02T22:19:10.686Z,1025
2018-11-02T22:24:10.293Z,1025.1
2018-11-02T22:29:10.337Z,1025.1
2018-11-02T22:34:10.185Z,1025.1
2018-11-02T22:39:10.179Z,1025.1
2018-11-02T22:44:10.194Z,1025.1
2018-11-02T22:49:23.030Z,1025.1
2018-11-02T22:54:22.781Z,1025.1
2018-11-02T22:59:22.774Z,1025.1
2018-11-02T23:04:22.784Z,1025.2
2018-11-02T23:09:22.777Z,1025.2
2018-11-02T23:14:22.792Z,1025.2
2018-11-02T23:19:23.236Z,1025.4
2018-11-02T23:24:22.775Z,1025.3
2018-11-02T23:29:23.002Z,1025.3
2018-11-02T23:34:34.354Z,1025.2
2018-11-02T23:39:34.264Z,1025.2
2018-11-02T23:44:34.071Z,1025.3
2018-11-02T23:49:34.222Z,1025.2
2018-11-02T23:54:34.260Z,1025.2
2018-11-02T23:59:34.088Z,1025.4
